sensor_id;sensor_type;location;lat;lon;timestamp;P1;durP1;ratioP1;P2;durP2;ratioP2
8562;SDS011;16392;52.508;13.468;2022-12-11T00:00:08;335.63;;;62.77;;
8562;SDS011;16392;52.508;13.468;2022-12-11T00:02:36;334.50;;;61.90;;
8562;SDS011;16392;52.508;13.468;2022-12-11T00:05:02;335.17;;;63.63;;
8562;SDS011;16392;52.508;13.468;2022-12-11T00:07:30;334.67;;;60.53;;
8562;SDS011;16392;52.508;13.468;2022-12-11T00:09:56;338.43;;;62.13;;
8562;SDS011;16392;52.508;13.468;2022-12-11T00:12:25;336.80;;;66.43;;
8562;SDS011;16392;52.508;13.468;2022-12-11T00:14:51;336.93;;;65.27;;
8562;SDS011;16392;52.508;13.468;2022-12-11T00:17:18;338.07;;;62.67;;
8562;SDS011;16392;52.508;13.468;2022-12-11T00:19:45;338.33;;;63.03;;
8562;SDS011;16392;52.508;13.468;2022-12-11T00:22:11;339.50;;;66.47;;
8562;SDS011;16392;52.508;13.468;2022-12-11T00:24:38;337.80;;;63.37;;
8562;SDS011;16392;52.508;13.468;2022-12-11T00:27:04;334.33;;;61.43;;
8562;SDS011;16392;52.508;13.468;2022-12-11T00:29:33;337.07;;;65.07;;
8562;SDS011;16392;52.508;13.468;2022-12-11T00:32:00;335.77;;;60.57;;
8562;SDS011;16392;52.508;13.468;2022-12-11T00:34:27;339.83;;;68.13;;
8562;SDS011;16392;52.508;13.468;2022-12-11T00:36:53;336.53;;;62.27;;
8562;SDS011;16392;52.508;13.468;2022-12-11T00:39:21;336.03;;;62.47;;
8562;SDS011;16392;52.508;13.468;2022-12-11T00:41:48;337.07;;;62.00;;
8562;SDS011;16392;52.508;13.468;2022-12-11T00:44:15;347.53;;;66.07;;
8562;SDS011;16392;52.508;13.468;2022-12-11T00:46:42;340.00;;;61.47;;
8562;SDS011;16392;52.508;13.468;2022-12-11T00:49:09;340.17;;;63.43;;
8562;SDS011;16392;52.508;13.468;2022-12-11T00:51:36;336.90;;;62.80;;
8562;SDS011;16392;52.508;13.468;2022-12-11T00:54:03;335.83;;;63.27;;
8562;SDS011;16392;52.508;13.468;2022-12-11T00:56:30;336.73;;;61.10;;
8562;SDS011;16392;52.508;13.468;2022-12-11T00:58:57;335.87;;;60.77;;
8562;SDS011;16392;52.508;13.468;2022-12-11T01:01:23;335.80;;;61.13;;
8562;SDS011;16392;52.508;13.468;2022-12-11T01:03:53;337.27;;;63.57;;
8562;SDS011;16392;52.508;13.468;2022-12-11T01:06:22;338.27;;;69.33;;
8562;SDS011;16392;52.508;13.468;2022-12-11T01:08:51;337.77;;;59.60;;
8562;SDS011;16392;52.508;13.468;2022-12-11T01:11:38;335.90;;;63.17;;
8562;SDS011;16392;52.508;13.468;2022-12-11T01:14:05;340.03;;;63.40;;
8562;SDS011;16392;52.508;13.468;2022-12-11T01:16:31;338.50;;;61.80;;
8562;SDS011;16392;52.508;13.468;2022-12-11T01:18:59;337.63;;;62.07;;
8562;SDS011;16392;52.508;13.468;2022-12-11T01:21:27;335.00;;;60.40;;
8562;SDS011;16392;52.508;13.468;2022-12-11T01:23:54;337.07;;;63.93;;
8562;SDS011;16392;52.508;13.468;2022-12-11T01:26:20;338.77;;;62.30;;
8562;SDS011;16392;52.508;13.468;2022-12-11T01:28:48;335.63;;;61.57;;
8562;SDS011;16392;52.508;13.468;2022-12-11T01:31:16;336.40;;;59.93;;
8562;SDS011;16392;52.508;13.468;2022-12-11T01:33:43;337.30;;;61.33;;
8562;SDS011;16392;52.508;13.468;2022-12-11T01:36:12;339.07;;;61.57;;
8562;SDS011;16392;52.508;13.468;2022-12-11T01:38:40;336.73;;;61.67;;
8562;SDS011;16392;52.508;13.468;2022-12-11T01:41:07;337.53;;;62.60;;
8562;SDS011;16392;52.508;13.468;2022-12-11T01:43:34;336.17;;;59.73;;
8562;SDS011;16392;52.508;13.468;2022-12-11T01:46:20;337.10;;;59.40;;
8562;SDS011;16392;52.508;13.468;2022-12-11T01:48:47;335.50;;;60.17;;
8562;SDS011;16392;52.508;13.468;2022-12-11T01:51:15;340.23;;;70.77;;
8562;SDS011;16392;52.508;13.468;2022-12-11T01:53:43;335.70;;;62.70;;
8562;SDS011;16392;52.508;13.468;2022-12-11T01:56:13;336.63;;;62.67;;
8562;SDS011;16392;52.508;13.468;2022-12-11T01:58:48;336.37;;;58.97;;
8562;SDS011;16392;52.508;13.468;2022-12-11T02:01:21;336.13;;;61.33;;
8562;SDS011;16392;52.508;13.468;2022-12-11T02:03:53;335.97;;;63.83;;
8562;SDS011;16392;52.508;13.468;2022-12-11T02:06:33;335.83;;;63.33;;
8562;SDS011;16392;52.508;13.468;2022-12-11T02:09:03;334.43;;;60.33;;
8562;SDS011;16392;52.508;13.468;2022-12-11T02:11:34;334.33;;;63.00;;
8562;SDS011;16392;52.508;13.468;2022-12-11T02:14:09;333.63;;;60.77;;
8562;SDS011;16392;52.508;13.468;2022-12-11T02:16:44;336.90;;;60.37;;
8562;SDS011;16392;52.508;13.468;2022-12-11T02:19:17;334.77;;;61.27;;
8562;SDS011;16392;52.508;13.468;2022-12-11T02:21:53;336.60;;;64.43;;
8562;SDS011;16392;52.508;13.468;2022-12-11T02:27:28;336.30;;;63.53;;
8562;SDS011;16392;52.508;13.468;2022-12-11T02:30:03;332.17;;;59.47;;
8562;SDS011;16392;52.508;13.468;2022-12-11T02:32:33;336.97;;;58.97;;
8562;SDS011;16392;52.508;13.468;2022-12-11T02:35:05;332.73;;;59.83;;
8562;SDS011;16392;52.508;13.468;2022-12-11T02:37:36;334.97;;;60.93;;
8562;SDS011;16392;52.508;13.468;2022-12-11T02:40:07;336.10;;;62.37;;
8562;SDS011;16392;52.508;13.468;2022-12-11T02:42:37;333.43;;;61.83;;
8562;SDS011;16392;52.508;13.468;2022-12-11T02:45:08;335.77;;;64.57;;
8562;SDS011;16392;52.508;13.468;2022-12-11T02:47:36;334.80;;;59.83;;
8562;SDS011;16392;52.508;13.468;2022-12-11T02:50:06;334.27;;;60.83;;
8562;SDS011;16392;52.508;13.468;2022-12-11T02:52:36;333.73;;;61.27;;
8562;SDS011;16392;52.508;13.468;2022-12-11T02:55:06;340.20;;;63.63;;
8562;SDS011;16392;52.508;13.468;2022-12-11T02:57:37;332.60;;;62.50;;
8562;SDS011;16392;52.508;13.468;2022-12-11T03:00:10;333.80;;;63.33;;
8562;SDS011;16392;52.508;13.468;2022-12-11T03:02:38;337.40;;;63.80;;
8562;SDS011;16392;52.508;13.468;2022-12-11T03:05:06;333.47;;;58.87;;
8562;SDS011;16392;52.508;13.468;2022-12-11T03:07:35;332.97;;;61.30;;
8562;SDS011;16392;52.508;13.468;2022-12-11T03:10:05;331.03;;;59.10;;
8562;SDS011;16392;52.508;13.468;2022-12-11T03:12:35;331.80;;;61.33;;
8562;SDS011;16392;52.508;13.468;2022-12-11T03:15:06;335.03;;;64.60;;
8562;SDS011;16392;52.508;13.468;2022-12-11T03:17:37;332.87;;;60.43;;
8562;SDS011;16392;52.508;13.468;2022-12-11T03:20:10;332.40;;;62.37;;
8562;SDS011;16392;52.508;13.468;2022-12-11T03:22:44;338.13;;;61.27;;
8562;SDS011;16392;52.508;13.468;2022-12-11T03:25:16;332.40;;;63.77;;
8562;SDS011;16392;52.508;13.468;2022-12-11T03:27:49;330.30;;;60.67;;
8562;SDS011;16392;52.508;13.468;2022-12-11T03:30:22;336.73;;;65.13;;
8562;SDS011;16392;52.508;13.468;2022-12-11T03:32:52;337.83;;;63.50;;
8562;SDS011;16392;52.508;13.468;2022-12-11T03:35:24;331.07;;;64.17;;
8562;SDS011;16392;52.508;13.468;2022-12-11T03:37:54;328.60;;;59.50;;
8562;SDS011;16392;52.508;13.468;2022-12-11T03:40:25;333.23;;;63.93;;
8562;SDS011;16392;52.508;13.468;2022-12-11T03:42:56;332.90;;;62.33;;
8562;SDS011;16392;52.508;13.468;2022-12-11T03:45:23;338.57;;;64.17;;
8562;SDS011;16392;52.508;13.468;2022-12-11T03:47:52;329.03;;;60.57;;
8562;SDS011;16392;52.508;13.468;2022-12-11T03:50:21;333.00;;;62.20;;
8562;SDS011;16392;52.508;13.468;2022-12-11T03:52:49;330.00;;;59.77;;
8562;SDS011;16392;52.508;13.468;2022-12-11T03:55:18;332.97;;;63.37;;
8562;SDS011;16392;52.508;13.468;2022-12-11T03:57:47;334.90;;;62.20;;
8562;SDS011;16392;52.508;13.468;2022-12-11T04:00:15;338.00;;;66.33;;
8562;SDS011;16392;52.508;13.468;2022-12-11T04:02:43;336.53;;;64.27;;
8562;SDS011;16392;52.508;13.468;2022-12-11T04:05:31;336.30;;;66.93;;
8562;SDS011;16392;52.508;13.468;2022-12-11T04:07:58;331.93;;;58.80;;
8562;SDS011;16392;52.508;13.468;2022-12-11T04:10:25;335.77;;;63.23;;
8562;SDS011;16392;52.508;13.468;2022-12-11T04:12:52;334.30;;;61.23;;
8562;SDS011;16392;52.508;13.468;2022-12-11T04:15:18;333.87;;;61.83;;
8562;SDS011;16392;52.508;13.468;2022-12-11T04:17:44;331.93;;;59.50;;
8562;SDS011;16392;52.508;13.468;2022-12-11T04:20:28;332.60;;;58.53;;
8562;SDS011;16392;52.508;13.468;2022-12-11T04:23:15;333.00;;;59.70;;
8562;SDS011;16392;52.508;13.468;2022-12-11T04:26:02;330.40;;;59.60;;
8562;SDS011;16392;52.508;13.468;2022-12-11T04:28:29;334.30;;;60.83;;
8562;SDS011;16392;52.508;13.468;2022-12-11T04:30:56;333.30;;;65.10;;
8562;SDS011;16392;52.508;13.468;2022-12-11T04:33:23;338.17;;;65.93;;
8562;SDS011;16392;52.508;13.468;2022-12-11T04:35:50;330.97;;;61.00;;
8562;SDS011;16392;52.508;13.468;2022-12-11T04:38:17;332.33;;;59.73;;
8562;SDS011;16392;52.508;13.468;2022-12-11T04:40:44;331.43;;;59.90;;
8562;SDS011;16392;52.508;13.468;2022-12-11T04:43:11;331.90;;;60.67;;
8562;SDS011;16392;52.508;13.468;2022-12-11T04:45:37;330.90;;;59.53;;
8562;SDS011;16392;52.508;13.468;2022-12-11T04:48:04;344.37;;;62.33;;
8562;SDS011;16392;52.508;13.468;2022-12-11T04:50:31;333.57;;;59.33;;
8562;SDS011;16392;52.508;13.468;2022-12-11T04:52:57;335.37;;;64.20;;
8562;SDS011;16392;52.508;13.468;2022-12-11T04:55:25;333.83;;;62.83;;
8562;SDS011;16392;52.508;13.468;2022-12-11T04:57:53;333.10;;;60.47;;
8562;SDS011;16392;52.508;13.468;2022-12-11T05:00:20;333.87;;;65.87;;
8562;SDS011;16392;52.508;13.468;2022-12-11T05:02:47;334.50;;;62.20;;
8562;SDS011;16392;52.508;13.468;2022-12-11T05:05:14;337.37;;;65.90;;
8562;SDS011;16392;52.508;13.468;2022-12-11T05:07:42;336.93;;;60.00;;
8562;SDS011;16392;52.508;13.468;2022-12-11T05:10:08;335.93;;;62.37;;
8562;SDS011;16392;52.508;13.468;2022-12-11T05:12:37;331.17;;;59.50;;
8562;SDS011;16392;52.508;13.468;2022-12-11T05:15:03;332.40;;;61.90;;
8562;SDS011;16392;52.508;13.468;2022-12-11T05:17:30;331.90;;;60.97;;
8562;SDS011;16392;52.508;13.468;2022-12-11T05:19:58;330.03;;;62.57;;
8562;SDS011;16392;52.508;13.468;2022-12-11T05:22:25;327.83;;;60.40;;
8562;SDS011;16392;52.508;13.468;2022-12-11T05:24:52;330.80;;;61.80;;
8562;SDS011;16392;52.508;13.468;2022-12-11T05:27:18;333.37;;;61.00;;
8562;SDS011;16392;52.508;13.468;2022-12-11T05:29:46;330.13;;;63.37;;
8562;SDS011;16392;52.508;13.468;2022-12-11T05:32:13;334.63;;;62.13;;
8562;SDS011;16392;52.508;13.468;2022-12-11T05:34:40;334.73;;;63.63;;
8562;SDS011;16392;52.508;13.468;2022-12-11T05:37:07;334.70;;;62.63;;
8562;SDS011;16392;52.508;13.468;2022-12-11T05:39:34;329.77;;;62.33;;
8562;SDS011;16392;52.508;13.468;2022-12-11T05:42:01;332.97;;;63.50;;
8562;SDS011;16392;52.508;13.468;2022-12-11T05:44:27;336.10;;;64.27;;
8562;SDS011;16392;52.508;13.468;2022-12-11T05:46:56;339.73;;;67.47;;
8562;SDS011;16392;52.508;13.468;2022-12-11T05:49:23;332.37;;;62.57;;
8562;SDS011;16392;52.508;13.468;2022-12-11T05:51:49;336.90;;;64.23;;
8562;SDS011;16392;52.508;13.468;2022-12-11T05:54:16;329.60;;;61.37;;
8562;SDS011;16392;52.508;13.468;2022-12-11T05:56:43;329.17;;;59.03;;
8562;SDS011;16392;52.508;13.468;2022-12-11T05:59:09;333.53;;;64.80;;
8562;SDS011;16392;52.508;13.468;2022-12-11T06:01:37;337.43;;;63.73;;
8562;SDS011;16392;52.508;13.468;2022-12-11T06:04:07;338.13;;;62.30;;
8562;SDS011;16392;52.508;13.468;2022-12-11T06:06:36;334.47;;;62.60;;
8562;SDS011;16392;52.508;13.468;2022-12-11T06:09:04;324.23;;;57.97;;
8562;SDS011;16392;52.508;13.468;2022-12-11T06:11:32;325.50;;;60.20;;
8562;SDS011;16392;52.508;13.468;2022-12-11T06:14:00;330.53;;;65.10;;
8562;SDS011;16392;52.508;13.468;2022-12-11T06:16:27;330.43;;;61.73;;
8562;SDS011;16392;52.508;13.468;2022-12-11T06:18:53;329.77;;;62.77;;
8562;SDS011;16392;52.508;13.468;2022-12-11T06:21:22;326.97;;;59.27;;
8562;SDS011;16392;52.508;13.468;2022-12-11T06:23:50;331.50;;;63.17;;
8562;SDS011;16392;52.508;13.468;2022-12-11T06:26:20;331.03;;;63.87;;
8562;SDS011;16392;52.508;13.468;2022-12-11T06:28:47;330.10;;;61.37;;
8562;SDS011;16392;52.508;13.468;2022-12-11T06:31:13;325.97;;;61.40;;
8562;SDS011;16392;52.508;13.468;2022-12-11T06:33:40;324.67;;;60.70;;
8562;SDS011;16392;52.508;13.468;2022-12-11T06:36:08;325.97;;;61.63;;
8562;SDS011;16392;52.508;13.468;2022-12-11T06:38:38;329.83;;;63.80;;
8562;SDS011;16392;52.508;13.468;2022-12-11T06:41:06;328.40;;;65.27;;
8562;SDS011;16392;52.508;13.468;2022-12-11T06:43:38;327.00;;;60.10;;
8562;SDS011;16392;52.508;13.468;2022-12-11T06:46:08;334.37;;;62.73;;
8562;SDS011;16392;52.508;13.468;2022-12-11T06:48:36;333.13;;;65.60;;
8562;SDS011;16392;52.508;13.468;2022-12-11T06:51:14;331.50;;;64.97;;
8562;SDS011;16392;52.508;13.468;2022-12-11T06:53:56;326.53;;;61.27;;
8562;SDS011;16392;52.508;13.468;2022-12-11T06:56:23;332.77;;;66.03;;
8562;SDS011;16392;52.508;13.468;2022-12-11T06:58:54;324.43;;;60.80;;
8562;SDS011;16392;52.508;13.468;2022-12-11T07:01:21;328.40;;;60.73;;
8562;SDS011;16392;52.508;13.468;2022-12-11T07:03:51;327.70;;;64.17;;
8562;SDS011;16392;52.508;13.468;2022-12-11T07:06:18;324.03;;;59.50;;
8562;SDS011;16392;52.508;13.468;2022-12-11T07:08:44;323.60;;;64.10;;
8562;SDS011;16392;52.508;13.468;2022-12-11T07:11:14;326.50;;;61.70;;
8562;SDS011;16392;52.508;13.468;2022-12-11T07:13:41;326.43;;;60.10;;
8562;SDS011;16392;52.508;13.468;2022-12-11T07:16:08;326.10;;;58.90;;
8562;SDS011;16392;52.508;13.468;2022-12-11T07:18:36;326.73;;;59.90;;
8562;SDS011;16392;52.508;13.468;2022-12-11T07:21:03;337.43;;;63.03;;
8562;SDS011;16392;52.508;13.468;2022-12-11T07:23:30;325.60;;;58.83;;
8562;SDS011;16392;52.508;13.468;2022-12-11T07:25:58;326.50;;;59.30;;
8562;SDS011;16392;52.508;13.468;2022-12-11T07:28:31;328.43;;;59.77;;
8562;SDS011;16392;52.508;13.468;2022-12-11T07:30:58;327.53;;;61.70;;
8562;SDS011;16392;52.508;13.468;2022-12-11T07:33:24;331.67;;;64.27;;
8562;SDS011;16392;52.508;13.468;2022-12-11T07:35:51;331.13;;;61.97;;
8562;SDS011;16392;52.508;13.468;2022-12-11T07:38:18;328.30;;;64.70;;
8562;SDS011;16392;52.508;13.468;2022-12-11T07:40:44;323.63;;;61.57;;
8562;SDS011;16392;52.508;13.468;2022-12-11T07:43:11;323.63;;;65.33;;
8562;SDS011;16392;52.508;13.468;2022-12-11T07:45:39;329.97;;;71.07;;
8562;SDS011;16392;52.508;13.468;2022-12-11T07:48:06;325.63;;;62.40;;
8562;SDS011;16392;52.508;13.468;2022-12-11T07:50:33;324.10;;;62.80;;
8562;SDS011;16392;52.508;13.468;2022-12-11T07:52:59;324.37;;;60.80;;
8562;SDS011;16392;52.508;13.468;2022-12-11T07:55:26;325.97;;;63.33;;
8562;SDS011;16392;52.508;13.468;2022-12-11T07:57:53;324.97;;;62.20;;
8562;SDS011;16392;52.508;13.468;2022-12-11T08:00:20;325.93;;;66.47;;
8562;SDS011;16392;52.508;13.468;2022-12-11T08:02:48;328.70;;;66.40;;
8562;SDS011;16392;52.508;13.468;2022-12-11T08:05:14;331.53;;;63.73;;
8562;SDS011;16392;52.508;13.468;2022-12-11T08:07:41;331.53;;;63.50;;
8562;SDS011;16392;52.508;13.468;2022-12-11T08:10:09;329.23;;;62.07;;
8562;SDS011;16392;52.508;13.468;2022-12-11T08:12:35;322.43;;;59.13;;
8562;SDS011;16392;52.508;13.468;2022-12-11T08:15:02;323.10;;;58.77;;
8562;SDS011;16392;52.508;13.468;2022-12-11T08:17:29;321.33;;;58.57;;
8562;SDS011;16392;52.508;13.468;2022-12-11T08:19:57;323.00;;;59.73;;
8562;SDS011;16392;52.508;13.468;2022-12-11T08:22:24;323.73;;;63.53;;
8562;SDS011;16392;52.508;13.468;2022-12-11T08:24:51;328.83;;;61.63;;
8562;SDS011;16392;52.508;13.468;2022-12-11T08:27:18;328.37;;;62.80;;
8562;SDS011;16392;52.508;13.468;2022-12-11T08:29:45;329.33;;;69.57;;
8562;SDS011;16392;52.508;13.468;2022-12-11T08:32:11;323.43;;;59.70;;
8562;SDS011;16392;52.508;13.468;2022-12-11T08:34:40;327.73;;;63.00;;
8562;SDS011;16392;52.508;13.468;2022-12-11T08:37:09;324.40;;;60.53;;
8562;SDS011;16392;52.508;13.468;2022-12-11T08:39:36;327.70;;;61.67;;
8562;SDS011;16392;52.508;13.468;2022-12-11T08:42:02;324.23;;;60.53;;
8562;SDS011;16392;52.508;13.468;2022-12-11T08:44:29;325.23;;;66.50;;
8562;SDS011;16392;52.508;13.468;2022-12-11T08:46:56;336.80;;;72.13;;
8562;SDS011;16392;52.508;13.468;2022-12-11T08:49:22;329.00;;;66.03;;
8562;SDS011;16392;52.508;13.468;2022-12-11T08:51:49;329.43;;;64.87;;
8562;SDS011;16392;52.508;13.468;2022-12-11T08:54:17;331.40;;;67.70;;
8562;SDS011;16392;52.508;13.468;2022-12-11T08:56:43;328.17;;;66.93;;
8562;SDS011;16392;52.508;13.468;2022-12-11T08:59:10;326.47;;;64.47;;
8562;SDS011;16392;52.508;13.468;2022-12-11T09:01:37;330.53;;;64.40;;
8562;SDS011;16392;52.508;13.468;2022-12-11T09:04:04;328.53;;;63.43;;
8562;SDS011;16392;52.508;13.468;2022-12-11T09:06:31;327.40;;;62.17;;
8562;SDS011;16392;52.508;13.468;2022-12-11T09:08:58;331.53;;;65.87;;
8562;SDS011;16392;52.508;13.468;2022-12-11T09:11:28;327.90;;;64.60;;
8562;SDS011;16392;52.508;13.468;2022-12-11T09:13:56;332.07;;;66.77;;
8562;SDS011;16392;52.508;13.468;2022-12-11T09:16:24;326.40;;;59.87;;
8562;SDS011;16392;52.508;13.468;2022-12-11T09:18:53;331.70;;;70.13;;
8562;SDS011;16392;52.508;13.468;2022-12-11T09:21:22;331.27;;;68.63;;
8562;SDS011;16392;52.508;13.468;2022-12-11T09:23:51;330.47;;;64.90;;
8562;SDS011;16392;52.508;13.468;2022-12-11T09:26:18;329.40;;;65.27;;
8562;SDS011;16392;52.508;13.468;2022-12-11T09:28:46;327.73;;;64.47;;
8562;SDS011;16392;52.508;13.468;2022-12-11T09:31:17;328.37;;;60.07;;
8562;SDS011;16392;52.508;13.468;2022-12-11T09:33:47;325.67;;;59.47;;
8562;SDS011;16392;52.508;13.468;2022-12-11T09:36:14;327.67;;;60.87;;
8562;SDS011;16392;52.508;13.468;2022-12-11T09:38:41;327.97;;;58.63;;
8562;SDS011;16392;52.508;13.468;2022-12-11T09:44:03;330.63;;;61.67;;
8562;SDS011;16392;52.508;13.468;2022-12-11T09:46:41;332.00;;;64.57;;
8562;SDS011;16392;52.508;13.468;2022-12-11T09:49:10;332.87;;;65.73;;
8562;SDS011;16392;52.508;13.468;2022-12-11T09:51:49;332.17;;;62.53;;
8562;SDS011;16392;52.508;13.468;2022-12-11T09:54:23;334.93;;;69.10;;
8562;SDS011;16392;52.508;13.468;2022-12-11T09:56:51;332.63;;;70.00;;
8562;SDS011;16392;52.508;13.468;2022-12-11T09:59:27;334.17;;;73.10;;
8562;SDS011;16392;52.508;13.468;2022-12-11T10:02:02;328.60;;;61.13;;
8562;SDS011;16392;52.508;13.468;2022-12-11T10:04:44;327.60;;;61.07;;
8562;SDS011;16392;52.508;13.468;2022-12-11T10:07:19;327.87;;;61.40;;
8562;SDS011;16392;52.508;13.468;2022-12-11T10:09:55;331.30;;;63.37;;
8562;SDS011;16392;52.508;13.468;2022-12-11T10:12:28;331.97;;;62.13;;
8562;SDS011;16392;52.508;13.468;2022-12-11T10:15:10;332.37;;;66.73;;
8562;SDS011;16392;52.508;13.468;2022-12-11T10:17:41;331.70;;;60.47;;
8562;SDS011;16392;52.508;13.468;2022-12-11T10:20:14;330.17;;;62.17;;
8562;SDS011;16392;52.508;13.468;2022-12-11T10:22:45;333.40;;;69.13;;
8562;SDS011;16392;52.508;13.468;2022-12-11T10:25:15;332.83;;;69.23;;
8562;SDS011;16392;52.508;13.468;2022-12-11T10:27:45;332.43;;;60.97;;
8562;SDS011;16392;52.508;13.468;2022-12-11T10:30:15;332.07;;;66.70;;
8562;SDS011;16392;52.508;13.468;2022-12-11T10:32:46;327.97;;;57.73;;
8562;SDS011;16392;52.508;13.468;2022-12-11T10:35:26;329.70;;;63.10;;
8562;SDS011;16392;52.508;13.468;2022-12-11T10:38:00;335.00;;;64.87;;
8562;SDS011;16392;52.508;13.468;2022-12-11T10:40:36;328.40;;;59.20;;
8562;SDS011;16392;52.508;13.468;2022-12-11T10:43:03;333.00;;;70.77;;
8562;SDS011;16392;52.508;13.468;2022-12-11T10:45:31;332.27;;;62.83;;
8562;SDS011;16392;52.508;13.468;2022-12-11T10:48:02;330.40;;;62.67;;
8562;SDS011;16392;52.508;13.468;2022-12-11T10:50:30;334.23;;;64.87;;
8562;SDS011;16392;52.508;13.468;2022-12-11T10:52:56;333.53;;;63.93;;
8562;SDS011;16392;52.508;13.468;2022-12-11T10:55:24;338.60;;;73.33;;
8562;SDS011;16392;52.508;13.468;2022-12-11T10:57:55;332.00;;;64.83;;
8562;SDS011;16392;52.508;13.468;2022-12-11T11:00:28;331.67;;;64.47;;
8562;SDS011;16392;52.508;13.468;2022-12-11T11:03:02;331.60;;;63.97;;
8562;SDS011;16392;52.508;13.468;2022-12-11T11:05:30;328.33;;;64.40;;
8562;SDS011;16392;52.508;13.468;2022-12-11T11:08:11;332.93;;;61.43;;
8562;SDS011;16392;52.508;13.468;2022-12-11T11:10:51;328.87;;;60.00;;
8562;SDS011;16392;52.508;13.468;2022-12-11T11:13:23;332.30;;;63.07;;
8562;SDS011;16392;52.508;13.468;2022-12-11T11:15:58;333.17;;;69.37;;
8562;SDS011;16392;52.508;13.468;2022-12-11T11:18:26;327.67;;;58.63;;
8562;SDS011;16392;52.508;13.468;2022-12-11T11:20:54;334.03;;;65.43;;
8562;SDS011;16392;52.508;13.468;2022-12-11T11:23:21;356.03;;;65.10;;
8562;SDS011;16392;52.508;13.468;2022-12-11T11:25:51;337.90;;;66.37;;
8562;SDS011;16392;52.508;13.468;2022-12-11T11:28:20;333.50;;;62.13;;
8562;SDS011;16392;52.508;13.468;2022-12-11T11:30:54;337.63;;;62.67;;
8562;SDS011;16392;52.508;13.468;2022-12-11T11:33:26;337.17;;;62.33;;
8562;SDS011;16392;52.508;13.468;2022-12-11T11:35:54;334.87;;;62.60;;
8562;SDS011;16392;52.508;13.468;2022-12-11T11:38:22;337.87;;;60.47;;
8562;SDS011;16392;52.508;13.468;2022-12-11T11:40:53;331.37;;;60.00;;
8562;SDS011;16392;52.508;13.468;2022-12-11T11:43:27;331.40;;;60.70;;
8562;SDS011;16392;52.508;13.468;2022-12-11T11:46:03;331.67;;;58.40;;
8562;SDS011;16392;52.508;13.468;2022-12-11T11:48:37;329.40;;;59.03;;
8562;SDS011;16392;52.508;13.468;2022-12-11T11:51:13;334.47;;;63.53;;
8562;SDS011;16392;52.508;13.468;2022-12-11T11:53:46;333.60;;;61.60;;
8562;SDS011;16392;52.508;13.468;2022-12-11T11:56:16;330.93;;;59.87;;
8562;SDS011;16392;52.508;13.468;2022-12-11T11:58:50;336.60;;;62.33;;
8562;SDS011;16392;52.508;13.468;2022-12-11T12:01:32;339.43;;;67.00;;
8562;SDS011;16392;52.508;13.468;2022-12-11T12:03:59;332.23;;;64.60;;
8562;SDS011;16392;52.508;13.468;2022-12-11T12:06:30;336.20;;;68.33;;
8562;SDS011;16392;52.508;13.468;2022-12-11T12:09:10;332.63;;;60.07;;
8562;SDS011;16392;52.508;13.468;2022-12-11T12:11:46;334.27;;;61.33;;
8562;SDS011;16392;52.508;13.468;2022-12-11T12:14:17;338.20;;;64.13;;
8562;SDS011;16392;52.508;13.468;2022-12-11T12:16:51;336.33;;;61.83;;
8562;SDS011;16392;52.508;13.468;2022-12-11T12:19:31;342.80;;;62.70;;
8562;SDS011;16392;52.508;13.468;2022-12-11T12:22:13;332.80;;;60.50;;
8562;SDS011;16392;52.508;13.468;2022-12-11T12:24:51;335.27;;;62.37;;
8562;SDS011;16392;52.508;13.468;2022-12-11T12:27:27;336.80;;;63.07;;
8562;SDS011;16392;52.508;13.468;2022-12-11T12:30:03;336.67;;;62.13;;
8562;SDS011;16392;52.508;13.468;2022-12-11T12:32:39;335.07;;;59.73;;
8562;SDS011;16392;52.508;13.468;2022-12-11T12:35:20;338.67;;;62.00;;
8562;SDS011;16392;52.508;13.468;2022-12-11T12:37:56;338.37;;;61.07;;
8562;SDS011;16392;52.508;13.468;2022-12-11T12:40:29;335.37;;;59.43;;
8562;SDS011;16392;52.508;13.468;2022-12-11T12:43:03;337.13;;;62.07;;
8562;SDS011;16392;52.508;13.468;2022-12-11T12:45:38;339.53;;;61.70;;
8562;SDS011;16392;52.508;13.468;2022-12-11T12:48:15;335.00;;;61.43;;
8562;SDS011;16392;52.508;13.468;2022-12-11T12:50:42;334.40;;;59.57;;
8562;SDS011;16392;52.508;13.468;2022-12-11T12:53:12;336.00;;;60.20;;
8562;SDS011;16392;52.508;13.468;2022-12-11T12:55:43;339.80;;;63.33;;
8562;SDS011;16392;52.508;13.468;2022-12-11T12:58:23;339.17;;;60.60;;
8562;SDS011;16392;52.508;13.468;2022-12-11T13:00:51;339.63;;;60.87;;
8562;SDS011;16392;52.508;13.468;2022-12-11T13:03:21;340.50;;;63.17;;
8562;SDS011;16392;52.508;13.468;2022-12-11T13:05:54;339.80;;;63.93;;
8562;SDS011;16392;52.508;13.468;2022-12-11T13:08:23;340.43;;;62.03;;
8562;SDS011;16392;52.508;13.468;2022-12-11T13:10:57;340.43;;;64.40;;
8562;SDS011;16392;52.508;13.468;2022-12-11T13:13:32;340.87;;;65.47;;
8562;SDS011;16392;52.508;13.468;2022-12-11T13:16:05;340.40;;;59.27;;
8562;SDS011;16392;52.508;13.468;2022-12-11T13:18:35;339.60;;;61.50;;
8562;SDS011;16392;52.508;13.468;2022-12-11T13:23:51;340.73;;;62.40;;
8562;SDS011;16392;52.508;13.468;2022-12-11T13:26:26;341.10;;;61.37;;
8562;SDS011;16392;52.508;13.468;2022-12-11T13:28:53;338.67;;;59.00;;
8562;SDS011;16392;52.508;13.468;2022-12-11T13:31:25;342.20;;;60.20;;
8562;SDS011;16392;52.508;13.468;2022-12-11T13:34:02;345.00;;;61.17;;
8562;SDS011;16392;52.508;13.468;2022-12-11T13:36:39;339.43;;;59.77;;
8562;SDS011;16392;52.508;13.468;2022-12-11T13:39:15;340.53;;;66.27;;
8562;SDS011;16392;52.508;13.468;2022-12-11T13:41:44;338.37;;;58.67;;
8562;SDS011;16392;52.508;13.468;2022-12-11T13:44:15;339.87;;;64.33;;
8562;SDS011;16392;52.508;13.468;2022-12-11T13:46:46;339.10;;;60.20;;
8562;SDS011;16392;52.508;13.468;2022-12-11T13:49:19;340.27;;;61.37;;
8562;SDS011;16392;52.508;13.468;2022-12-11T13:51:53;343.17;;;62.13;;
8562;SDS011;16392;52.508;13.468;2022-12-11T13:54:21;346.00;;;64.33;;
8562;SDS011;16392;52.508;13.468;2022-12-11T13:56:55;344.20;;;70.57;;
8562;SDS011;16392;52.508;13.468;2022-12-11T13:59:26;336.63;;;63.93;;
8562;SDS011;16392;52.508;13.468;2022-12-11T14:01:56;337.93;;;62.23;;
8562;SDS011;16392;52.508;13.468;2022-12-11T14:04:27;335.00;;;59.47;;
8562;SDS011;16392;52.508;13.468;2022-12-11T14:06:55;336.13;;;60.53;;
8562;SDS011;16392;52.508;13.468;2022-12-11T14:09:23;342.00;;;62.40;;
8562;SDS011;16392;52.508;13.468;2022-12-11T14:11:52;341.60;;;61.53;;
8562;SDS011;16392;52.508;13.468;2022-12-11T14:14:22;340.53;;;69.50;;
8562;SDS011;16392;52.508;13.468;2022-12-11T14:16:54;336.67;;;61.73;;
8562;SDS011;16392;52.508;13.468;2022-12-11T14:19:21;333.30;;;60.33;;
8562;SDS011;16392;52.508;13.468;2022-12-11T14:21:58;338.73;;;62.07;;
8562;SDS011;16392;52.508;13.468;2022-12-11T14:24:26;336.63;;;60.23;;
8562;SDS011;16392;52.508;13.468;2022-12-11T14:26:54;336.87;;;67.27;;
8562;SDS011;16392;52.508;13.468;2022-12-11T14:29:25;336.30;;;62.27;;
8562;SDS011;16392;52.508;13.468;2022-12-11T14:31:53;336.80;;;61.13;;